Time;durP1;ratioP1;P1;durP2;ratioP2;P2;SDS_P1;SDS_P2;PMS_P1;PMS_P2;Temp;Humidity;BMP_temperature;BMP_pressure;BME280_temperature;BME280_humidity;BME280_pressure;Samples;Min_cycle;Max_cycle;Signal;HPM_P1;HPM_P2
2023/02/15 00:00:43;;;;;;;1.50;1.40;;;;;;;0.51;78.74;101255.69;5113770;28;20048;-68
2023/02/15 00:03:16;;;;;;;2.25;2.15;;;;;;;0.49;79.22;101253.84;5114302;28;20554;-68
2023/02/15 00:05:45;;;;;;;1.65;1.25;;;;;;;0.49;79.23;101261.38;5113700;28;20048;-67
2023/02/15 00:08:14;;;;;;;2.30;2.10;;;;;;;0.44;79.21;101257.72;5113886;28;20088;-68
2023/02/15 00:10:43;;;;;;;2.90;2.53;;;;;;;0.35;79.09;101257.13;5113996;28;20783;-67
2023/02/15 00:13:11;;;;;;;3.80;2.38;;;;;;;0.31;79.31;101256.03;5113707;28;20042;-67
2023/02/15 00:15:40;;;;;;;1.88;1.77;;;;;;;0.26;79.26;101252.38;5113485;28;20039;-68
2023/02/15 00:18:09;;;;;;;5.47;2.97;;;;;;;0.29;79.11;101266.78;5113577;28;20119;-68
2023/02/15 00:20:39;;;;;;;4.10;2.80;;;;;;;0.29;79.58;101254.22;5113594;28;20074;-67
2023/02/15 00:23:09;;;;;;;2.28;2.17;;;;;;;0.28;79.60;101265.03;5113716;28;20048;-67
2023/02/15 00:25:37;;;;;;;1.90;1.80;;;;;;;0.23;79.40;101267.25;5113731;28;20545;-68
2023/02/15 00:28:06;;;;;;;2.73;2.33;;;;;;;0.23;79.93;101266.34;5113413;28;20062;-68
2023/02/15 00:30:35;;;;;;;7.00;1.45;;;;;;;0.27;79.77;101263.28;5115433;28;20451;-68
2023/02/15 00:33:04;;;;;;;3.10;2.20;;;;;;;0.29;79.96;101256.72;5116379;28;20419;-68
2023/02/15 00:35:34;;;;;;;15.85;3.15;;;;;;;0.28;80.26;101262.50;5117841;28;20296;-68
2023/02/15 00:38:05;;;;;;;2.42;2.22;;;;;;;0.26;79.90;101262.44;5116304;28;20043;-69
2023/02/15 00:40:33;;;;;;;1.42;1.33;;;;;;;0.20;79.82;101261.13;5117181;28;20051;-67
2023/02/15 00:43:02;;;;;;;1.77;1.67;;;;;;;0.13;80.11;101259.88;5115990;28;20070;-68
2023/02/15 00:45:31;;;;;;;0.60;0.60;;;;;;;0.21;80.08;101252.84;5117309;28;20126;-68
2023/02/15 00:48:00;;;;;;;0.60;0.60;;;;;;;0.22;80.19;101252.06;5116041;28;20130;-68
2023/02/15 00:50:29;;;;;;;2.63;2.40;;;;;;;0.17;79.95;101251.75;5116966;27;20131;-67
2023/02/15 00:52:58;;;;;;;1.00;1.00;;;;;;;0.07;79.81;101253.59;5116927;28;20043;-67
2023/02/15 00:55:28;;;;;;;9.45;3.00;;;;;;;0.04;79.99;101254.25;5117197;28;20397;-67
2023/02/15 00:57:57;;;;;;;1.75;1.65;;;;;;;-0.01;80.15;101251.44;5116898;28;20047;-67
2023/02/15 01:00:26;;;;;;;3.47;2.43;;;;;;;0.00;80.38;101249.81;5116712;28;20560;-67
2023/02/15 01:02:57;;;;;;;3.50;2.80;;;;;;;-0.11;80.35;101249.09;5115928;28;20271;-67
2023/02/15 01:05:26;;;;;;;2.78;2.58;;;;;;;-0.16;80.48;101240.38;5115848;28;20032;-67
2023/02/15 01:07:54;;;;;;;2.17;2.03;;;;;;;-0.11;80.15;101246.56;5115469;28;20067;-67
2023/02/15 01:10:23;;;;;;;1.85;1.73;;;;;;;-0.13;80.50;101245.59;5116842;28;20558;-67
2023/02/15 01:12:54;;;;;;;3.22;2.67;;;;;;;-0.15;80.24;101244.63;5116517;28;20043;-67
2023/02/15 01:15:24;;;;;;;1.98;1.88;;;;;;;-0.18;80.21;101236.91;5116405;28;20114;-67
2023/02/15 01:17:54;;;;;;;1.88;1.77;;;;;;;-0.23;80.10;101240.75;5117389;28;20522;-67
2023/02/15 01:20:25;;;;;;;1.33;1.23;;;;;;;-0.30;80.29;101241.09;5115473;28;20038;-67
2023/02/15 01:22:55;;;;;;;7.05;2.97;;;;;;;-0.42;79.91;101237.75;5115201;28;20044;-67
2023/02/15 01:25:25;;;;;;;2.58;2.05;;;;;;;-0.49;80.18;101243.13;5116283;28;20138;-67
2023/02/15 01:27:57;;;;;;;1.98;1.88;;;;;;;-0.55;79.98;101236.84;5116261;28;20048;-67
2023/02/15 01:30:26;;;;;;;1.98;1.88;;;;;;;-0.52;80.37;101242.91;5115308;28;20044;-67
2023/02/15 01:32:55;;;;;;;0.70;0.70;;;;;;;-0.52;80.46;101232.00;5114988;28;20067;-66
2023/02/15 01:35:24;;;;;;;0.40;0.40;;;;;;;-0.50;80.47;101231.34;5115443;28;20401;-66
2023/02/15 01:37:55;;;;;;;1.45;1.38;;;;;;;-0.57;80.49;101224.19;5116086;28;20075;-67
2023/02/15 01:40:25;;;;;;;4.55;2.83;;;;;;;-0.64;80.40;101232.06;5114761;28;20216;-67
2023/02/15 01:42:54;;;;;;;1.05;1.05;;;;;;;-0.67;80.52;101236.84;5114260;28;20052;-67
2023/02/15 01:45:29;;;;;;;2.67;1.30;;;;;;;-0.64;80.65;101237.06;5115821;28;20039;-67
2023/02/15 01:48:02;;;;;;;1.60;1.50;;;;;;;-0.67;80.65;101236.84;5114734;28;20047;-68
2023/02/15 01:50:35;;;;;;;1.02;1.02;;;;;;;-0.68;80.45;101241.00;5114648;28;20070;-68
2023/02/15 01:53:10;;;;;;;1.42;1.33;;;;;;;-0.70;80.34;101235.00;5115787;28;20047;-66
2023/02/15 01:55:43;;;;;;;1.42;1.17;;;;;;;-0.72;80.60;101243.22;5115720;28;20058;-67
2023/02/15 01:58:13;;;;;;;1.17;1.10;;;;;;;-0.80;80.35;101235.16;5114752;28;20047;-67
2023/02/15 02:00:45;;;;;;;1.27;1.17;;;;;;;-0.81;80.38;101235.03;5097610;28;20063;-67
2023/02/15 02:03:15;;;;;;;1.17;0.95;;;;;;;-0.80;80.15;101231.78;5114809;28;20596;-67
2023/02/15 02:05:44;;;;;;;3.03;2.15;;;;;;;-0.85;80.02;101231.47;5115727;28;20061;-66
2023/02/15 02:08:13;;;;;;;0.65;0.57;;;;;;;-0.91;80.24;101231.03;5115813;28;20039;-66
2023/02/15 02:10:42;;;;;;;5.25;3.80;;;;;;;-0.90;80.10;101231.91;5114441;28;20070;-67
2023/02/15 02:13:11;;;;;;;1.65;1.55;;;;;;;-0.89;80.20;101223.63;5115677;28;20032;-67
2023/02/15 02:15:53;;;;;;;2.30;2.10;;;;;;;-1.01;80.33;101212.75;5115549;28;20439;-66
2023/02/15 02:18:36;;;;;;;1.95;1.85;;;;;;;-0.97;80.28;101210.56;5114115;28;20058;-67
2023/02/15 02:21:44;;;;;;;0.85;0.85;;;;;;;-0.96;80.62;101216.47;5116090;28;20522;-67
2023/02/15 02:24:41;;;;;;;1.95;1.85;;;;;;;-0.96;80.63;101214.78;5115457;28;20075;-68
2023/02/15 02:27:33;;;;;;;1.42;1.33;;;;;;;-0.94;80.68;101210.78;5113968;28;20055;-67
2023/02/15 02:30:26;;;;;;;0.70;0.70;;;;;;;-0.99;80.68;101216.22;5114226;28;20101;-66
2023/02/15 02:33:17;;;;;;;1.48;1.38;;;;;;;-1.06;80.24;101216.56;5114036;28;20088;-67
2023/02/15 02:35:54;;;;;;;1.05;1.05;;;;;;;-1.12;80.39;101214.50;5114949;28;20049;-67
2023/02/15 02:38:30;;;;;;;1.13;1.10;;;;;;;-1.17;80.18;101214.94;5114904;28;20047;-67
2023/02/15 02:41:14;;;;;;;1.40;1.27;;;;;;;-1.20;80.58;101212.25;5113672;28;20050;-66
2023/02/15 02:43:51;;;;;;;0.70;0.70;;;;;;;-1.13;80.72;101211.91;5115081;28;20067;-66
2023/02/15 02:46:27;;;;;;;13.70;1.67;;;;;;;-1.19;80.32;101212.34;5114763;28;20039;-66
2023/02/15 02:48:58;;;;;;;0.30;0.30;;;;;;;-1.26;80.44;101214.28;5113497;28;20492;-67
2023/02/15 02:51:27;;;;;;;0.82;0.82;;;;;;;-1.21;80.16;101218.88;5113533;28;20051;-67
2023/02/15 02:53:58;;;;;;;0.80;0.80;;;;;;;-1.17;80.18;101209.94;5114020;28;20047;-66
2023/02/15 02:56:31;;;;;;;2.03;1.38;;;;;;;-1.23;79.84;101204.50;5114886;28;20546;-67
2023/02/15 02:59:06;;;;;;;1.33;1.23;;;;;;;-1.32;79.96;101201.38;5114520;28;20060;-67
2023/02/15 03:01:44;;;;;;;0.93;0.93;;;;;;;-1.33;80.26;101202.09;5114798;28;20520;-67
2023/02/15 03:04:18;;;;;;;1.40;1.30;;;;;;;-1.32;80.55;101203.88;5114421;28;20055;-67
2023/02/15 03:06:52;;;;;;;1.05;1.05;;;;;;;-1.34;80.35;101205.41;5113160;28;20054;-67
2023/02/15 03:09:34;;;;;;;2.83;2.58;;;;;;;-1.39;80.64;101208.41;5113444;28;20130;-67
2023/02/15 03:12:05;;;;;;;0.80;0.80;;;;;;;-1.39;80.76;101207.53;5114653;28;20119;-66
2023/02/15 03:14:40;;;;;;;2.00;1.70;;;;;;;-1.44;80.87;101204.72;5113587;28;20074;-67
2023/02/15 03:17:11;;;;;;;8.50;3.42;;;;;;;-1.52;80.67;101205.84;5114155;28;20126;-66
2023/02/15 03:19:42;;;;;;;1.27;1.17;;;;;;;-1.51;81.08;101209.19;5113348;28;20100;-66
2023/02/15 03:22:16;;;;;;;0.32;0.32;;;;;;;-1.38;80.95;101206.78;5113110;28;20043;-67
2023/02/15 03:24:51;;;;;;;1.75;1.65;;;;;;;-1.32;80.80;101216.38;5113425;28;20040;-66
2023/02/15 03:27:24;;;;;;;0.95;0.95;;;;;;;-1.29;80.82;101214.06;5112867;28;20538;-68
2023/02/15 03:29:57;;;;;;;0.82;0.82;;;;;;;-1.27;81.24;101208.41;5113245;28;20070;-67
2023/02/15 03:32:29;;;;;;;0.47;0.47;;;;;;;-1.29;80.97;101214.06;5113432;28;20130;-66
2023/02/15 03:35:00;;;;;;;1.27;1.17;;;;;;;-1.36;80.94;101213.66;5114876;28;20074;-67
2023/02/15 03:37:36;;;;;;;1.15;1.10;;;;;;;-1.28;81.22;101215.81;5114331;28;20040;-67
2023/02/15 03:43:01;;;;;;;1.40;1.30;;;;;;;-1.45;80.99;101217.13;5112205;28;20035;-66
2023/02/15 03:45:34;;;;;;;1.55;1.45;;;;;;;-1.45;80.76;101218.03;5113808;28;20709;-66
2023/02/15 03:48:06;;;;;;;1.63;1.52;;;;;;;-1.46;80.82;101217.88;5113945;28;20071;-67
2023/02/15 03:53:22;;;;;;;1.33;1.23;;;;;;;-1.52;80.88;101214.97;5113841;28;20074;-67
2023/02/15 03:55:54;;;;;;;1.08;1.05;;;;;;;-1.60;80.83;101214.41;5113810;28;20036;-66
2023/02/15 04:03:56;;;;;;;1.75;1.50;;;;;;;-1.45;80.77;101215.50;5113827;28;20076;-66
2023/02/15 04:06:26;;;;;;;2.65;2.45;;;;;;;-1.43;80.52;101216.50;5116701;28;20085;-66
2023/02/15 04:11:33;;;;;;;1.67;1.58;;;;;;;-1.56;80.24;101208.84;5118147;28;20486;-67
2023/02/15 04:16:02;;;;;;;9.33;3.20;;;;;;;-1.57;80.24;101212.13;5117705;28;20040;-67
2023/02/15 04:16:50;;;;;;;1.75;1.65;;;;;;;-1.60;80.50;101206.03;5117380;28;20105;-67
2023/02/15 04:27:15;;;;;;;0.90;0.90;;;;;;;-1.77;80.13;101189.81;5117393;28;20040;-66
2023/02/15 04:29:45;;;;;;;3.92;3.63;;;;;;;-1.59;80.04;101222.78;5117381;28;20067;-67
2023/02/15 04:32:14;;;;;;;1.83;1.73;;;;;;;-1.62;79.95;101223.44;5117368;28;20061;-67
2023/02/15 04:34:42;;;;;;;2.20;2.00;;;;;;;-1.67;80.18;101224.75;5117611;28;20036;-67
2023/02/15 04:37:13;;;;;;;4.00;3.67;;;;;;;-1.74;80.16;101222.56;5117528;28;20052;-68
2023/02/15 04:39:41;;;;;;;1.60;1.50;;;;;;;-1.83;80.23;101221.03;5117243;28;20310;-67
2023/02/15 04:42:10;;;;;;;1.43;1.33;;;;;;;-1.89;80.01;101216.44;5117128;28;20039;-66
2023/02/15 04:44:39;;;;;;;4.88;3.95;;;;;;;-1.83;80.40;101221.91;5117114;28;20044;-67
2023/02/15 04:47:08;;;;;;;3.45;2.67;;;;;;;-1.85;80.61;101208.41;5116931;28;20043;-66
2023/02/15 04:49:37;;;;;;;3.25;2.97;;;;;;;-1.81;80.34;101215.38;5117032;28;20501;-67
2023/02/15 04:52:06;;;;;;;4.13;3.60;;;;;;;-1.90;80.51;101212.22;5116972;28;20043;-68
2023/02/15 04:54:37;;;;;;;2.22;2.08;;;;;;;-1.90;80.91;101214.72;5117525;28;20043;-66
2023/02/15 04:57:06;;;;;;;3.25;2.97;;;;;;;-1.90;80.65;101222.22;5116855;28;20044;-67
2023/02/15 04:59:35;;;;;;;4.73;4.23;;;;;;;-1.90;80.52;101218.84;5117432;27;20523;-67
2023/02/15 05:02:04;;;;;;;1.37;1.27;;;;;;;-1.92;80.72;101221.22;5116807;28;20119;-66
2023/02/15 05:04:33;;;;;;;1.40;1.30;;;;;;;-2.01;80.75;101210.53;5116974;28;20638;-66
2023/02/15 05:07:02;;;;;;;2.63;2.42;;;;;;;-2.03;80.59;101217.06;5116910;28;20212;-66
2023/02/15 05:09:31;;;;;;;1.20;1.10;;;;;;;-1.96;80.79;101219.25;5115417;28;20130;-67
2023/02/15 05:12:01;;;;;;;0.60;0.60;;;;;;;-2.00;81.03;101212.28;5116939;28;20036;-66
2023/02/15 05:14:30;;;;;;;1.08;1.08;;;;;;;-1.99;80.57;101214.00;5116896;28;20112;-67
2023/02/15 05:17:01;;;;;;;1.55;1.45;;;;;;;-2.00;81.09;101216.41;5115513;28;20470;-67
2023/02/15 05:19:30;;;;;;;2.10;2.00;;;;;;;-2.05;80.61;101218.59;5116734;28;20047;-67
2023/02/15 05:21:59;;;;;;;1.40;1.30;;;;;;;-2.05;80.83;101216.97;5116393;28;20097;-66
2023/02/15 05:29:49;;;;;;;1.25;1.15;;;;;;;-2.14;80.61;101217.91;5116162;28;20063;-67
2023/02/15 05:32:18;;;;;;;3.75;2.33;;;;;;;-2.14;80.73;101233.78;5116184;28;20055;-66
2023/02/15 05:34:47;;;;;;;1.17;1.15;;;;;;;-2.15;80.72;101228.66;5116433;27;20394;-67
2023/02/15 05:37:16;;;;;;;2.70;2.50;;;;;;;-2.14;80.72;101232.91;5116093;28;20100;-68
2023/02/15 05:39:45;;;;;;;0.95;0.95;;;;;;;-2.13;80.57;101240.53;5116097;28;20046;-66
2023/02/15 05:42:16;;;;;;;1.80;1.65;;;;;;;-2.13;80.42;101237.13;5114770;28;20050;-68
2023/02/15 05:44:45;;;;;;;2.20;2.05;;;;;;;-2.13;80.67;101239.63;5116043;28;20048;-67
2023/02/15 05:47:14;;;;;;;0.97;0.97;;;;;;;-2.13;80.53;101244.63;5115871;28;20035;-67
2023/02/15 05:49:43;;;;;;;0.40;0.40;;;;;;;-2.14;80.68;101251.31;5115877;28;20400;-67
2023/02/15 05:52:12;;;;;;;1.37;1.27;;;;;;;-2.18;80.44;101251.81;5115875;28;20032;-67
2023/02/15 05:54:40;;;;;;;2.17;1.80;;;;;;;-2.20;80.50;101260.81;5115938;28;20104;-66
2023/02/15 05:57:09;;;;;;;1.95;1.85;;;;;;;-2.19;79.91;101259.22;5116002;28;20130;-67
2023/02/15 05:59:39;;;;;;;3.13;2.33;;;;;;;-2.20;80.38;101274.94;5116211;28;20505;-67
2023/02/15 06:02:08;;;;;;;0.80;0.80;;;;;;;-2.13;80.65;101269.66;5115910;28;20043;-68
2023/02/15 06:04:37;;;;;;;2.83;2.63;;;;;;;-2.18;79.96;101276.81;5115881;28;20046;-68
2023/02/15 06:07:06;;;;;;;1.48;1.40;;;;;;;-2.16;79.85;101274.44;5115647;28;20505;-67
2023/02/15 06:09:35;;;;;;;1.50;1.40;;;;;;;-2.14;80.13;101280.44;5116067;28;20374;-68
2023/02/15 06:12:04;;;;;;;4.53;2.97;;;;;;;-2.18;80.46;101270.94;5115351;28;20147;-67
2023/02/15 06:14:32;;;;;;;1.95;1.80;;;;;;;-2.17;80.47;101272.69;5115272;28;20326;-67
2023/02/15 06:17:03;;;;;;;1.73;1.63;;;;;;;-2.10;79.96;101282.38;5115319;28;20062;-67
2023/02/15 06:19:31;;;;;;;1.58;1.48;;;;;;;-2.06;80.62;101289.34;5115201;28;20063;-66
2023/02/15 06:22:00;;;;;;;0.80;0.80;;;;;;;-1.71;80.88;101281.97;5115519;28;20443;-68
2023/02/15 06:24:29;;;;;;;0.77;0.77;;;;;;;-1.20;80.51;101289.88;5115700;28;20121;-68
2023/02/15 06:26:58;;;;;;;5.03;3.15;;;;;;;-0.77;80.25;101294.66;5115376;28;20521;-68
2023/02/15 06:29:27;;;;;;;3.30;3.03;;;;;;;-0.46;79.98;101293.50;5114932;28;20071;-67
2023/02/15 06:31:55;;;;;;;0.60;0.60;;;;;;;-0.36;79.39;101300.84;5115262;28;20061;-67
2023/02/15 06:34:26;;;;;;;3.13;2.78;;;;;;;-0.25;78.93;101294.97;5115045;28;20066;-71
2023/02/15 06:36:54;;;;;;;1.77;1.67;;;;;;;-0.11;78.38;101304.28;5114004;28;20055;-68
2023/02/15 06:39:23;;;;;;;3.00;2.78;;;;;;;-0.04;77.71;101301.41;5114900;28;20047;-69
2023/02/15 06:41:52;;;;;;;9.10;3.53;;;;;;;-0.19;77.44;101297.88;5114729;28;20040;-68
2023/02/15 06:44:21;;;;;;;1.20;1.13;;;;;;;-0.15;77.72;101302.34;5114835;28;20039;-66
2023/02/15 06:46:50;;;;;;;2.80;1.83;;;;;;;-0.10;77.63;101300.13;5114680;28;20329;-67
2023/02/15 06:49:19;;;;;;;4.57;2.95;;;;;;;-0.07;78.04;101296.19;5114721;28;20068;-68
2023/02/15 06:51:49;;;;;;;1.73;1.63;;;;;;;-0.09;78.12;101290.19;5114700;28;20482;-68
2023/02/15 06:54:18;;;;;;;3.75;1.95;;;;;;;0.00;77.99;101288.28;5114542;28;20059;-67
2023/02/15 06:56:47;;;;;;;1.90;1.70;;;;;;;0.07;78.13;101283.69;5114570;28;20118;-68
2023/02/15 06:59:16;;;;;;;2.00;1.85;;;;;;;0.13;78.22;101284.09;5114447;28;20040;-67
2023/02/15 07:01:45;;;;;;;4.87;4.40;;;;;;;0.23;78.54;101286.44;5114488;28;20126;-67
2023/02/15 07:04:13;;;;;;;10.20;7.90;;;;;;;0.38;78.36;101272.38;5114352;28;20126;-67
2023/02/15 07:06:42;;;;;;;5.75;4.85;;;;;;;0.49;78.84;101276.44;5114973;28;20401;-67
2023/02/15 07:09:13;;;;;;;2.08;1.98;;;;;;;0.60;78.65;101275.53;5114237;28;20102;-67
2023/02/15 07:14:21;;;;;;;;;;;;;;;0.79;78.56;101277.56;5114978;28;20094;-67
2023/02/15 07:16:50;;;;;;;10.95;7.85;;;;;;;0.91;78.16;101269.13;5114146;28;19973;-67
2023/02/15 07:19:19;;;;;;;8.77;4.97;;;;;;;1.01;78.60;101276.47;5114865;28;20044;-67
2023/02/15 07:21:48;;;;;;;4.80;2.88;;;;;;;1.08;77.80;101272.72;5114493;28;20039;-67
2023/02/15 07:24:18;;;;;;;2.83;2.60;;;;;;;1.17;78.04;101269.13;5114076;28;20046;-67
2023/02/15 07:26:47;;;;;;;5.18;3.03;;;;;;;1.10;78.39;101272.06;5114545;28;20054;-67
2023/02/15 07:29:16;;;;;;;3.67;3.38;;;;;;;1.28;78.00;101273.16;5113862;28;20085;-67
2023/02/15 07:31:45;;;;;;;2.92;2.65;;;;;;;1.49;78.60;101272.75;5114099;28;20063;-68
2023/02/15 07:34:14;;;;;;;10.65;5.88;;;;;;;1.60;78.56;101272.63;5114076;28;20067;-68
2023/02/15 07:36:45;;;;;;;8.25;4.55;;;;;;;1.75;78.65;101272.66;5114021;28;20122;-67
2023/02/15 07:39:14;;;;;;;5.75;4.95;;;;;;;1.94;78.11;101275.50;5113824;28;20109;-68
2023/02/15 07:41:44;;;;;;;7.33;4.40;;;;;;;2.04;78.29;101272.72;5114238;28;20101;-68
2023/02/15 07:44:14;;;;;;;3.33;2.85;;;;;;;2.19;77.48;101273.63;5114265;28;20048;-67
2023/02/15 07:46:43;;;;;;;2.10;1.90;;;;;;;2.39;77.71;101267.22;5113930;28;20063;-67
2023/02/15 07:49:11;;;;;;;5.15;3.33;;;;;;;2.52;77.48;101269.66;5113827;28;20063;-67
2023/02/15 07:51:42;;;;;;;1.67;1.58;;;;;;;2.62;77.22;101269.38;5114201;28;20051;-68
2023/02/15 07:54:11;;;;;;;3.75;3.13;;;;;;;2.78;76.86;101258.50;5113767;28;20052;-68
2023/02/15 07:56:40;;;;;;;1.57;1.47;;;;;;;2.86;77.10;101253.09;5114167;28;20132;-66
2023/02/15 07:59:11;;;;;;;1.55;1.45;;;;;;;2.94;77.07;101254.41;5111891;28;20048;-66
2023/02/15 08:01:40;;;;;;;2.88;1.67;;;;;;;2.91;75.70;101246.66;5098635;28;20051;-66
2023/02/15 08:04:10;;;;;;;2.05;1.60;;;;;;;2.80;76.23;101246.84;5093715;28;20524;-66
2023/02/15 08:06:39;;;;;;;1.83;1.73;;;;;;;2.71;75.93;101248.06;5093640;28;20047;-65
2023/02/15 08:09:10;;;;;;;9.27;3.63;;;;;;;2.76;75.22;101239.91;5093693;28;20067;-68
2023/02/15 08:11:40;;;;;;;1.88;1.60;;;;;;;2.70;75.78;101246.34;5093533;28;20043;-68
2023/02/15 08:14:12;;;;;;;3.17;1.85;;;;;;;2.73;75.83;101238.09;5093317;28;20051;-67
2023/02/15 08:16:43;;;;;;;5.57;3.05;;;;;;;2.79;75.34;101240.06;5092960;28;20052;-66
2023/02/15 08:19:14;;;;;;;1.77;1.67;;;;;;;2.98;75.09;101241.16;5092526;28;20379;-66
2023/02/15 08:21:46;;;;;;;4.00;3.42;;;;;;;3.13;75.05;101238.59;5093667;28;20041;-66
2023/02/15 08:24:16;;;;;;;1.80;1.70;;;;;;;3.25;74.92;101234.22;5093182;28;20068;-67
2023/02/15 08:26:46;;;;;;;4.10;3.15;;;;;;;3.45;75.18;101232.75;5093214;28;20493;-67
2023/02/15 08:29:19;;;;;;;1.80;1.70;;;;;;;3.42;74.36;101233.44;5092973;28;20040;-67
2023/02/15 08:31:48;;;;;;;2.63;2.10;;;;;;;3.58;74.68;101230.94;5093675;28;20398;-68
2023/02/15 08:34:19;;;;;;;1.48;1.38;;;;;;;3.60;73.92;101234.41;5093031;28;20044;-66
2023/02/15 08:36:48;;;;;;;0.55;0.55;;;;;;;3.63;73.87;101239.59;5093352;28;20056;-67
2023/02/15 08:39:17;;;;;;;1.37;1.27;;;;;;;3.69;73.88;101229.84;5092913;28;20127;-67
2023/02/15 08:41:48;;;;;;;2.45;2.28;;;;;;;3.88;74.38;101237.56;5093315;28;20284;-68
2023/02/15 08:44:20;;;;;;;0.98;0.98;;;;;;;4.08;73.41;101226.78;5093348;28;20040;-67
2023/02/15 08:46:50;;;;;;;3.08;2.60;;;;;;;4.22;73.84;101234.19;5093558;28;20044;-69
2023/02/15 08:49:20;;;;;;;2.75;1.50;;;;;;;4.32;73.16;101227.13;5105235;28;20045;-67
2023/02/15 08:51:50;;;;;;;1.60;1.50;;;;;;;4.27;73.06;101232.78;5110325;28;20044;-68
2023/02/15 08:54:22;;;;;;;2.20;1.35;;;;;;;4.43;72.81;101225.13;5106155;28;20039;-67
2023/02/15 08:56:51;;;;;;;0.73;0.73;;;;;;;4.51;72.09;101226.38;5116826;28;20466;-67
2023/02/15 08:59:23;;;;;;;3.63;2.67;;;;;;;4.56;72.19;101225.78;5117156;28;20039;-68
2023/02/15 09:01:54;;;;;;;1.35;1.25;;;;;;;4.71;71.86;101228.19;5117117;28;20135;-69
2023/02/15 09:04:23;;;;;;;0.68;0.68;;;;;;;4.91;71.53;101219.88;5109411;28;20060;-68
2023/02/15 09:06:51;;;;;;;1.92;1.77;;;;;;;4.87;71.15;101233.16;5097128;27;20081;-69
2023/02/15 09:09:21;;;;;;;3.30;2.47;;;;;;;5.04;71.29;101226.38;5109817;28;20044;-69
2023/02/15 09:11:52;;;;;;;2.67;1.73;;;;;;;5.21;70.64;101231.38;5108117;28;20300;-68
2023/02/15 09:14:28;;;;;;;2.28;2.00;;;;;;;5.17;70.63;101231.19;5114941;28;20042;-67
2023/02/15 09:16:57;;;;;;;2.33;2.15;;;;;;;5.03;70.35;101224.63;5116345;28;20042;-67
2023/02/15 09:19:26;;;;;;;2.77;1.67;;;;;;;5.03;70.50;101233.09;5116285;28;20074;-67
2023/02/15 09:21:55;;;;;;;3.13;2.83;;;;;;;5.03;70.07;101228.03;5116187;28;20287;-67
2023/02/15 09:24:24;;;;;;;6.43;2.17;;;;;;;5.17;70.98;101232.06;5116573;28;20063;-68
2023/02/15 09:26:52;;;;;;;5.25;3.13;;;;;;;5.14;71.00;101238.63;5110823;28;20382;-67
2023/02/15 09:29:22;;;;;;;1.47;1.37;;;;;;;5.33;70.84;101229.41;5112852;28;20051;-69
2023/02/15 09:31:53;;;;;;;2.42;2.22;;;;;;;5.41;70.90;101228.09;5115697;28;20074;-70
2023/02/15 09:34:23;;;;;;;2.25;2.05;;;;;;;5.41;70.15;101233.16;5107586;28;20077;-69
2023/02/15 09:36:53;;;;;;;1.58;1.48;;;;;;;5.50;70.81;101232.69;5096274;28;20055;-67
2023/02/15 09:39:24;;;;;;;2.67;2.25;;;;;;;5.58;70.00;101215.31;5095630;28;20048;-68
2023/02/15 09:42:26;;;;;;;1.52;1.35;;;;;;;5.56;70.19;101221.97;5095651;28;20052;-67
2023/02/15 09:45:11;;;;;;;1.27;1.17;;;;;;;5.57;70.18;101223.69;5115043;28;20485;-68
2023/02/15 09:48:10;;;;;;;2.40;1.40;;;;;;;5.77;70.47;101218.72;5107071;28;20131;-67
2023/02/15 09:50:53;;;;;;;1.58;1.48;;;;;;;5.92;69.96;101218.53;5095393;28;20135;-68
2023/02/15 09:53:48;;;;;;;4.05;2.50;;;;;;;5.98;69.70;101216.25;5095575;28;20127;-69
2023/02/15 09:56:30;;;;;;;2.00;1.90;;;;;;;5.93;69.61;101210.13;5095103;28;20143;-69
2023/02/15 09:59:11;;;;;;;2.35;2.15;;;;;;;5.99;69.70;101215.47;5095578;28;20052;-67
2023/02/15 10:01:51;;;;;;;1.90;1.77;;;;;;;6.16;69.71;101219.56;5100118;28;20035;-67
2023/02/15 10:04:40;;;;;;;1.10;1.05;;;;;;;6.25;69.19;101209.78;5094585;28;20044;-68
2023/02/15 10:07:21;;;;;;;0.57;0.57;;;;;;;6.41;69.06;101212.16;5094716;28;20039;-67
2023/02/15 10:10:05;;;;;;;0.75;0.75;;;;;;;6.41;69.00;101211.28;5104584;28;20047;-66
2023/02/15 10:12:51;;;;;;;1.05;1.02;;;;;;;6.53;69.10;101217.72;5115717;28;20543;-66
2023/02/15 10:15:43;;;;;;;1.15;1.05;;;;;;;6.60;68.50;101218.81;5115030;28;20050;-66
2023/02/15 10:18:25;;;;;;;3.00;2.45;;;;;;;6.80;68.75;101206.91;5115223;28;20047;-67
2023/02/15 10:21:08;;;;;;;3.00;1.98;;;;;;;6.97;69.14;101210.97;5115224;28;20051;-67
2023/02/15 10:24:05;;;;;;;5.72;2.30;;;;;;;7.15;68.35;101202.38;5115564;28;20049;-69
2023/02/15 10:26:41;;;;;;;3.85;3.47;;;;;;;7.33;68.23;101202.19;5094750;28;20044;-68
2023/02/15 10:29:17;;;;;;;2.42;2.22;;;;;;;7.31;67.79;101198.72;5094597;28;20069;-66
2023/02/15 10:31:50;;;;;;;2.35;1.77;;;;;;;7.61;68.28;101187.13;5094388;28;20044;-68
2023/02/15 10:34:21;;;;;;;2.45;1.80;;;;;;;7.84;67.90;101191.34;5103492;28;20039;-67
2023/02/15 10:37:25;;;;;;;3.90;2.70;;;;;;;7.81;66.79;101187.81;5108695;28;20060;-66
2023/02/15 10:40:04;;;;;;;3.63;2.42;;;;;;;7.85;67.01;101175.25;5094332;28;20056;-69
2023/02/15 10:42:46;;;;;;;2.40;2.17;;;;;;;7.94;66.54;101180.66;5094685;28;20064;-67
2023/02/15 10:45:29;;;;;;;2.33;1.50;;;;;;;8.06;66.45;101180.22;5094315;28;20054;-69
2023/02/15 10:48:24;;;;;;;0.70;0.70;;;;;;;8.11;65.83;101184.63;5093435;28;20448;-68
2023/02/15 10:50:55;;;;;;;5.35;2.22;;;;;;;8.08;65.34;101179.47;5093063;28;20040;-66
2023/02/15 10:53:49;;;;;;;2.15;1.65;;;;;;;7.92;65.95;101182.28;5093603;28;20044;-66
2023/02/15 10:56:26;;;;;;;1.52;1.42;;;;;;;7.94;66.04;101170.47;5089317;28;20046;-66
2023/02/15 10:59:21;;;;;;;3.35;2.55;;;;;;;8.15;66.02;101177.09;5114820;28;20134;-67
2023/02/15 11:01:57;;;;;;;1.90;1.80;;;;;;;8.19;65.09;101171.31;5114382;28;20130;-67
2023/02/15 11:04:42;;;;;;;6.80;2.83;;;;;;;8.28;65.62;101171.66;5114437;28;20047;-67
2023/02/15 11:07:18;;;;;;;2.47;1.65;;;;;;;8.28;65.17;101166.56;5113909;28;20083;-67
2023/02/15 11:09:53;;;;;;;14.35;2.15;;;;;;;8.35;64.83;101168.50;5096768;28;20398;-67
2023/02/15 11:12:27;;;;;;;3.00;2.35;;;;;;;8.28;64.35;101174.19;5094271;28;20037;-68
2023/02/15 11:15:04;;;;;;;2.28;2.08;;;;;;;8.12;64.71;101160.06;5093007;28;20079;-66
2023/02/15 11:17:38;;;;;;;3.33;3.03;;;;;;;8.13;65.04;101156.72;5094159;28;20461;-69
2023/02/15 11:20:18;;;;;;;2.28;2.08;;;;;;;8.16;64.31;101151.72;5094453;28;20044;-67
2023/02/15 11:22:53;;;;;;;2.25;2.05;;;;;;;8.14;64.72;101140.63;5093905;28;20052;-66
2023/02/15 11:25:26;;;;;;;3.88;3.22;;;;;;;8.37;65.18;101141.41;5093813;28;20490;-66
2023/02/15 11:27:57;;;;;;;3.17;2.88;;;;;;;8.31;64.06;101141.22;5092824;28;20079;-68
2023/02/15 11:30:34;;;;;;;4.22;2.75;;;;;;;8.24;64.11;101145.22;5092973;28;20062;-68
2023/02/15 11:33:07;;;;;;;8.50;4.03;;;;;;;8.38;64.46;101143.13;5104496;28;20067;-68
2023/02/15 11:35:42;;;;;;;4.97;2.08;;;;;;;8.47;63.95;101135.81;5113912;28;20047;-68
2023/02/15 11:38:16;;;;;;;2.47;1.33;;;;;;;8.39;63.18;101134.69;5110620;28;20039;-67
2023/02/15 11:40:49;;;;;;;2.92;2.38;;;;;;;8.32;63.87;101140.41;5114040;28;20490;-67
2023/02/15 11:43:27;;;;;;;2.90;2.70;;;;;;;8.46;64.11;101134.06;5113971;28;20051;-69
2023/02/15 11:45:56;;;;;;;4.70;2.60;;;;;;;8.69;64.35;101133.06;5113924;28;20547;-67
2023/02/15 11:48:25;;;;;;;4.72;4.25;;;;;;;8.66;64.03;101125.38;5113925;28;20039;-67
2023/02/15 11:50:54;;;;;;;2.85;2.20;;;;;;;8.50;64.64;101129.13;5113823;28;20042;-66
2023/02/15 11:53:25;;;;;;;3.83;2.40;;;;;;;8.71;63.65;101133.97;5113820;28;20039;-68
2023/02/15 11:55:54;;;;;;;6.07;2.50;;;;;;;8.89;63.57;101114.16;5113863;28;20050;-68
2023/02/15 11:58:31;;;;;;;3.80;3.40;;;;;;;9.01;63.38;101113.66;5106741;28;20036;-67
2023/02/15 12:01:10;;;;;;;2.63;2.40;;;;;;;8.97;63.50;101107.63;5106992;28;20057;-67
2023/02/15 12:03:47;;;;;;;4.55;4.05;;;;;;;8.75;62.98;101120.53;5114000;28;20056;-67
2023/02/15 12:06:26;;;;;;;2.03;1.88;;;;;;;8.99;62.62;101116.16;5111382;28;20109;-67
2023/02/15 12:09:07;;;;;;;3.73;2.73;;;;;;;9.13;62.04;101099.59;5095212;28;20071;-67
2023/02/15 12:11:38;;;;;;;3.63;1.75;;;;;;;9.12;61.38;101110.59;5100181;28;20039;-68
2023/02/15 12:14:11;;;;;;;6.82;1.63;;;;;;;9.06;61.39;101112.09;5095539;28;20048;-66
2023/02/15 12:16:46;;;;;;;5.50;3.38;;;;;;;8.94;61.66;101101.56;5093083;28;20052;-67
2023/02/15 12:19:30;;;;;;;3.60;3.25;;;;;;;8.81;62.58;101104.56;5093225;28;20131;-67
2023/02/15 12:22:00;;;;;;;3.00;2.67;;;;;;;8.95;62.22;101106.69;5093198;28;20517;-67
2023/02/15 12:24:33;;;;;;;3.00;2.70;;;;;;;9.06;61.47;101092.59;5093805;28;20040;-67